Time;durP1;ratioP1;P1;durP2;ratioP2;P2;SDS_P1;SDS_P2;PMS_P1;PMS_P2;Temp;Humidity;BMP_temperature;BMP_pressure;BME280_temperature;BME280_humidity;BME280_pressure;Samples;Min_cycle;Max_cycle;Signal;HPM_P1;HPM_P2
2021/06/07 00:02:12;;;;;;;3.73;2.03;;;;;;;14.33;100.00;99841.45;1741664;81;20958;-74
2021/06/07 00:04:38;;;;;;;6.07;2.30;;;;;;;14.29;100.00;99841.59;1745610;81;21054;-74
2021/06/07 00:07:08;;;;;;;4.00;2.00;;;;;;;14.20;100.00;99836.84;1742297;81;21037;-73
2021/06/07 00:09:36;;;;;;;4.97;2.73;;;;;;;14.25;100.00;99837.02;1743420;81;21769;-73
2021/06/07 00:12:15;;;;;;;3.77;2.20;;;;;;;14.17;100.00;99830.23;1749321;81;20963;-72
2021/06/07 00:14:42;;;;;;;4.57;2.10;;;;;;;14.17;100.00;99826.30;1743661;81;21307;-64
2021/06/07 00:17:08;;;;;;;4.10;2.03;;;;;;;14.03;100.00;99827.44;1744130;81;21061;-74
2021/06/07 00:19:38;;;;;;;3.93;2.47;;;;;;;13.93;100.00;99823.98;1745950;81;21728;-74
2021/06/07 00:22:05;;;;;;;4.27;2.63;;;;;;;13.89;100.00;99820.19;1744584;81;21497;-64
2021/06/07 00:24:32;;;;;;;5.30;2.63;;;;;;;13.87;100.00;99823.55;1746360;81;21068;-70
2021/06/07 00:26:59;;;;;;;6.60;3.23;;;;;;;13.77;100.00;99829.77;1748375;81;21273;-74
2021/06/07 00:29:26;;;;;;;3.80;2.50;;;;;;;13.83;100.00;99817.94;1742622;81;21961;-73
2021/06/07 00:31:54;;;;;;;5.87;2.80;;;;;;;13.76;100.00;99826.88;1747813;81;20932;-73
2021/06/07 00:34:20;;;;;;;4.83;2.80;;;;;;;13.78;100.00;99826.93;1744177;81;21592;-63
2021/06/07 00:36:49;;;;;;;5.90;2.53;;;;;;;13.74;100.00;99831.00;1746903;81;21552;-72
2021/06/07 00:39:16;;;;;;;3.67;2.33;;;;;;;13.66;100.00;99829.95;1744691;81;21014;-73
2021/06/07 00:41:46;;;;;;;3.17;2.20;;;;;;;13.63;100.00;99829.06;1749214;81;20947;-72
2021/06/07 00:44:18;;;;;;;8.30;2.40;;;;;;;13.59;100.00;99837.05;1745498;81;21747;-73
2021/06/07 00:46:45;;;;;;;4.57;2.77;;;;;;;13.57;100.00;99837.80;1742404;81;22271;-72
2021/06/07 00:49:12;;;;;;;4.40;2.40;;;;;;;13.56;100.00;99837.48;1749117;81;21763;-73
2021/06/07 00:51:41;;;;;;;3.30;2.30;;;;;;;13.39;100.00;99846.36;1748872;81;21613;-73
2021/06/07 00:54:08;;;;;;;5.00;2.27;;;;;;;13.39;100.00;99846.36;1747261;81;21450;-71
2021/06/07 00:56:35;;;;;;;5.63;2.80;;;;;;;13.23;100.00;99848.98;1747683;81;21600;-63
2021/06/07 00:59:03;;;;;;;5.50;3.43;;;;;;;13.19;100.00;99845.16;1735330;81;21750;-71
2021/06/07 01:01:31;;;;;;;4.73;3.07;;;;;;;13.18;100.00;99836.98;1745310;81;21743;-70
2021/06/07 01:03:59;;;;;;;6.13;3.20;;;;;;;13.00;100.00;99853.91;1735436;81;21684;-71
2021/06/07 01:06:26;;;;;;;7.57;2.50;;;;;;;13.00;100.00;99853.91;1719916;82;21707;-70
2021/06/07 01:08:54;;;;;;;4.97;2.67;;;;;;;12.93;100.00;99851.83;1720885;82;21703;-62
2021/06/07 01:11:21;;;;;;;4.40;2.50;;;;;;;12.87;100.00;99852.94;1725089;82;22723;-70
2021/06/07 01:13:51;;;;;;;4.10;2.50;;;;;;;12.80;100.00;99848.23;1718986;82;21598;-72
2021/06/07 01:16:20;;;;;;;4.83;2.57;;;;;;;12.70;100.00;99844.47;1723810;82;21606;-72
2021/06/07 01:18:47;;;;;;;5.17;3.03;;;;;;;12.72;100.00;99844.55;1718571;82;22146;-67
2021/06/07 01:21:18;;;;;;;4.87;2.50;;;;;;;12.75;100.00;99846.75;1722221;82;21731;-71
2021/06/07 01:23:46;;;;;;;4.60;3.07;;;;;;;12.87;100.00;99846.39;1738484;81;21449;-73
2021/06/07 01:26:15;;;;;;;5.30;3.13;;;;;;;12.83;100.00;99845.20;1742607;81;21662;-72
2021/06/07 01:28:42;;;;;;;5.07;2.40;;;;;;;12.83;100.00;99845.20;1747228;81;21544;-63
2021/06/07 01:31:11;;;;;;;7.37;2.63;;;;;;;12.83;100.00;99852.25;1739866;81;21779;-75
2021/06/07 01:33:40;;;;;;;5.17;2.60;;;;;;;12.84;100.00;99854.67;1747035;81;22174;-72
2021/06/07 01:36:08;;;;;;;5.47;3.03;;;;;;;12.81;100.00;99870.78;1737744;81;21623;-71
2021/06/07 01:38:35;;;;;;;6.23;3.30;;;;;;;12.81;100.00;99870.78;1746860;81;21597;-62
2021/06/07 01:41:05;;;;;;;4.33;2.50;;;;;;;12.80;100.00;99869.66;1736016;81;22134;-71
2021/06/07 01:43:34;;;;;;;4.47;2.70;;;;;;;12.76;100.00;99877.63;1745610;81;21398;-72
2021/06/07 01:46:01;;;;;;;5.33;2.90;;;;;;;12.69;100.00;99872.44;1745482;81;21663;-72
2021/06/07 01:48:27;;;;;;;6.73;3.20;;;;;;;12.63;100.00;99875.86;1742222;81;21660;-63
2021/06/07 01:50:58;;;;;;;5.03;2.90;;;;;;;12.56;100.00;99869.84;1743461;81;21783;-72
2021/06/07 01:53:26;;;;;;;7.80;3.43;;;;;;;12.53;100.00;99873.66;1740131;81;22154;-74
2021/06/07 01:55:56;;;;;;;5.33;2.87;;;;;;;12.47;100.00;99880.23;1743717;81;21735;-74
2021/06/07 01:58:23;;;;;;;8.67;3.20;;;;;;;12.55;100.00;99878.70;1738462;81;22542;-74
2021/06/07 02:01:00;;;;;;;5.13;3.50;;;;;;;12.53;100.00;99878.89;1742749;81;21744;-74
2021/06/07 02:03:27;;;;;;;9.93;3.20;;;;;;;12.45;100.00;99878.31;1745767;81;22238;-74
2021/06/07 02:05:56;;;;;;;5.33;3.20;;;;;;;12.50;100.00;99886.34;1765262;79;21691;-76
2021/06/07 02:08:24;;;;;;;7.07;3.93;;;;;;;12.55;100.00;99886.55;1768151;80;21562;-64
2021/06/07 02:10:53;;;;;;;5.30;3.77;;;;;;;12.90;100.00;99879.98;1768126;79;21597;-65
2021/06/07 02:13:21;;;;;;;7.40;3.80;;;;;;;13.53;100.00;99886.37;1768202;79;22618;-74
2021/06/07 02:16:00;;;;;;;5.53;3.60;;;;;;;14.33;100.00;99879.98;1768620;79;21520;-73
2021/06/07 02:18:28;;;;;;;6.53;4.03;;;;;;;15.03;100.00;99880.95;1765552;79;21493;-72
2021/06/07 02:20:56;;;;;;;6.10;3.87;;;;;;;15.50;100.00;99879.83;1767349;80;21129;-74
2021/06/07 02:23:23;;;;;;;7.87;4.00;;;;;;;15.74;100.00;99876.25;1768119;79;21150;-75
2021/06/07 02:25:51;;;;;;;7.23;3.67;;;;;;;16.26;100.00;99866.41;1768589;79;20974;-75
2021/06/07 02:28:17;;;;;;;5.57;3.63;;;;;;;16.78;100.00;99859.87;1768630;79;21003;-71
2021/06/07 02:30:46;;;;;;;5.10;3.50;;;;;;;17.48;100.00;99860.11;1768030;79;20958;-71
2021/06/07 02:33:12;;;;;;;6.57;3.77;;;;;;;18.11;100.00;99850.31;1767781;80;21133;-75
2021/06/07 02:35:39;;;;;;;5.23;3.67;;;;;;;18.52;100.00;99841.07;1769156;79;21160;-75
2021/06/07 02:38:05;;;;;;;7.33;3.47;;;;;;;18.65;100.00;99843.36;1768325;79;20923;-74
2021/06/07 02:40:33;;;;;;;6.07;3.33;;;;;;;18.77;100.00;99842.47;1756422;79;21014;-73
2021/06/07 02:43:00;;;;;;;5.30;3.37;;;;;;;18.78;100.00;99845.38;1767146;79;20958;-74
2021/06/07 02:45:28;;;;;;;6.43;3.40;;;;;;;18.68;100.00;99844.72;1768370;79;21065;-75
2021/06/07 02:47:57;;;;;;;6.07;3.20;;;;;;;18.40;100.00;99852.27;1768470;79;21160;-74
2021/06/07 02:50:30;;;;;;;7.60;3.57;;;;;;;18.04;100.00;99850.48;1768328;79;20951;-74
2021/06/07 02:52:56;;;;;;;7.07;3.60;;;;;;;17.83;100.00;99852.52;1767935;80;21625;-66
2021/06/07 02:55:31;;;;;;;6.70;3.33;;;;;;;17.56;100.00;99853.64;1767554;79;21014;-72
2021/06/07 02:57:58;;;;;;;5.87;3.70;;;;;;;17.37;100.00;99855.70;1756328;80;21006;-75
2021/06/07 03:00:35;;;;;;;6.03;3.57;;;;;;;17.13;100.00;99852.39;1763303;79;23476;-74
2021/06/07 03:03:03;;;;;;;6.97;3.40;;;;;;;16.96;100.00;99851.80;1725434;80;21369;-71
2021/06/07 03:05:29;;;;;;;5.07;3.67;;;;;;;16.89;100.00;99856.40;1734097;80;21288;-73
2021/06/07 03:07:57;;;;;;;6.90;4.37;;;;;;;16.84;100.00;99857.63;1735837;80;20919;-74
2021/06/07 03:10:23;;;;;;;9.47;4.37;;;;;;;16.78;100.00;99858.06;1733689;81;21484;-74
2021/06/07 03:12:50;;;;;;;8.90;3.97;;;;;;;16.78;100.00;99858.06;1739313;80;21855;-72
2021/06/07 03:15:17;;;;;;;6.77;3.97;;;;;;;16.69;100.00;99863.87;1731501;81;21488;-76
2021/06/07 03:17:45;;;;;;;5.27;3.70;;;;;;;16.72;100.00;99870.80;1737601;80;20990;-74
2021/06/07 03:20:14;;;;;;;8.07;3.90;;;;;;;16.70;100.00;99866.27;1731040;80;21015;-75
2021/06/07 03:22:40;;;;;;;6.10;3.63;;;;;;;16.70;100.00;99866.78;1735360;81;21006;-74
2021/06/07 03:25:09;;;;;;;9.83;3.63;;;;;;;16.69;100.00;99862.56;1729048;81;21520;-64
2021/06/07 03:27:36;;;;;;;6.23;4.20;;;;;;;16.51;100.00;99859.03;1733010;81;22130;-68
2021/06/07 03:30:05;;;;;;;5.00;3.47;;;;;;;16.46;100.00;99863.41;1729022;80;21022;-76
2021/06/07 03:32:32;;;;;;;6.53;3.63;;;;;;;16.37;100.00;99854.28;1725436;81;20919;-74
2021/06/07 03:34:58;;;;;;;7.23;4.10;;;;;;;16.34;100.00;99858.16;1734217;81;20880;-62
2021/06/07 03:37:26;;;;;;;7.20;4.40;;;;;;;16.36;100.00;99860.55;1728675;81;22560;-69
2021/06/07 03:39:53;;;;;;;7.20;4.30;;;;;;;16.41;100.00;99860.67;1726654;81;20958;-70
2021/06/07 03:42:21;;;;;;;8.33;5.10;;;;;;;16.39;100.00;99856.15;1726357;81;21049;-70
2021/06/07 03:44:47;;;;;;;7.03;3.50;;;;;;;16.48;100.00;99857.41;1725842;81;20951;-69
2021/06/07 03:47:14;;;;;;;6.07;3.60;;;;;;;16.53;100.00;99856.98;1725781;81;20955;-65
2021/06/07 03:49:40;;;;;;;7.53;4.20;;;;;;;16.53;100.00;99855.67;1726133;81;22359;-71
2021/06/07 03:52:07;;;;;;;9.03;4.90;;;;;;;16.56;100.00;99853.10;1725663;81;21005;-69
2021/06/07 03:54:33;;;;;;;5.17;4.07;;;;;;;16.66;100.00;99859.07;1725214;81;21512;-69
2021/06/07 03:57:00;;;;;;;6.67;4.30;;;;;;;16.63;100.00;99856.90;1698044;82;21040;-71
2021/06/07 03:59:27;;;;;;;4.70;3.23;;;;;;;16.55;100.00;99862.00;1719211;81;20954;-72
2021/06/07 04:01:54;;;;;;;5.53;3.60;;;;;;;16.54;100.00;99867.79;1723834;81;21967;-70
2021/06/07 04:04:20;;;;;;;7.47;3.97;;;;;;;16.52;100.00;99861.17;1713488;82;21671;-69
2021/06/07 04:06:47;;;;;;;7.10;4.43;;;;;;;16.54;100.00;99866.47;1719166;82;21413;-74
2021/06/07 04:09:15;;;;;;;6.97;4.07;;;;;;;16.58;100.00;99867.33;1724713;80;20932;-70
2021/06/07 04:11:41;;;;;;;7.60;3.60;;;;;;;16.63;100.00;99868.25;1725862;82;21060;-67
2021/06/07 04:14:08;;;;;;;8.00;3.87;;;;;;;16.70;100.00;99868.09;1717243;82;21177;-70
2021/06/07 04:16:35;;;;;;;6.27;4.50;;;;;;;16.78;100.00;99875.17;1726631;80;21020;-69
2021/06/07 04:19:01;;;;;;;7.00;4.17;;;;;;;16.88;100.00;99873.76;1714833;82;20943;-68
2021/06/07 04:21:28;;;;;;;4.93;3.63;;;;;;;17.10;100.00;99878.66;1725696;82;21029;-64
2021/06/07 04:23:55;;;;;;;6.13;4.20;;;;;;;17.33;100.00;99873.02;1713220;82;20931;-69
2021/06/07 04:26:21;;;;;;;5.23;3.33;;;;;;;17.49;100.00;99875.67;1723380;81;22316;-68
2021/06/07 04:28:48;;;;;;;6.20;4.07;;;;;;;17.58;100.00;99877.41;1714598;82;21027;-69
2021/06/07 04:31:15;;;;;;;6.37;4.00;;;;;;;17.86;100.00;99877.89;1715129;81;20978;-69
2021/06/07 04:33:42;;;;;;;6.40;4.07;;;;;;;18.16;100.00;99869.64;1720638;82;21098;-63
2021/06/07 04:36:08;;;;;;;6.50;3.77;;;;;;;18.52;100.00;99868.78;1714632;82;20966;-68
2021/06/07 04:38:35;;;;;;;5.83;3.70;;;;;;;18.81;100.00;99875.25;1699445;83;21050;-68
2021/06/07 04:41:02;;;;;;;5.53;4.10;;;;;;;19.04;100.00;99881.59;1712625;82;21031;-68
2021/06/07 04:43:28;;;;;;;8.17;4.00;;;;;;;19.21;100.00;99885.48;1717557;82;21192;-67
2021/06/07 04:45:55;;;;;;;7.17;4.40;;;;;;;19.37;100.00;99884.57;1711476;82;21089;-62
2021/06/07 04:48:22;;;;;;;6.03;4.17;;;;;;;19.55;100.00;99879.98;1714282;82;21144;-68
2021/06/07 04:50:51;;;;;;;7.90;4.10;;;;;;;19.75;100.00;99884.67;1713182;82;21142;-66
2021/06/07 04:53:17;;;;;;;6.27;3.37;;;;;;;19.84;100.00;99880.50;1718382;81;20987;-68
2021/06/07 04:55:50;;;;;;;7.47;3.40;;;;;;;19.95;100.00;99878.73;1716568;81;21081;-68
2021/06/07 04:58:27;;;;;;;5.77;3.30;;;;;;;20.01;100.00;99883.02;1714598;82;21054;-68
2021/06/07 05:01:00;;;;;;;6.10;3.97;;;;;;;20.10;100.00;99884.92;1714321;82;20963;-68
2021/06/07 05:03:27;;;;;;;5.33;3.77;;;;;;;20.24;100.00;99883.95;1715053;82;21509;-63
2021/06/07 05:05:57;;;;;;;7.37;5.00;;;;;;;20.52;100.00;99886.77;1711995;82;21005;-63
2021/06/07 05:08:26;;;;;;;6.17;4.00;;;;;;;20.68;100.00;99874.39;1715326;82;21053;-68
2021/06/07 05:10:53;;;;;;;5.37;3.90;;;;;;;20.94;100.00;99881.91;1723667;80;20986;-67
2021/06/07 05:13:19;;;;;;;7.00;4.03;;;;;;;21.34;100.00;99887.08;1723141;81;20928;-65
2021/06/07 05:15:46;;;;;;;7.63;3.77;;;;;;;21.75;100.00;99885.78;1720120;82;21777;-63
2021/06/07 05:18:13;;;;;;;8.07;4.00;;;;;;;22.08;100.00;99878.56;1722509;81;20900;-67
2021/06/07 05:20:40;;;;;;;4.90;3.43;;;;;;;22.43;100.00;99882.25;1718205;82;21341;-67
2021/06/07 05:23:07;;;;;;;4.73;3.20;;;;;;;22.63;100.00;99884.58;1722417;80;20966;-68
2021/06/07 05:25:33;;;;;;;5.43;3.40;;;;;;;22.80;100.00;99885.02;1717241;82;20986;-68
2021/06/07 05:28:01;;;;;;;6.90;3.30;;;;;;;23.00;100.00;99883.63;1725239;82;21123;-62
2021/06/07 05:30:29;;;;;;;6.77;3.60;;;;;;;23.16;100.00;99881.67;1720200;81;21018;-68
2021/06/07 05:32:56;;;;;;;4.90;3.10;;;;;;;23.55;100.00;99883.53;1669995;84;21060;-67
2021/06/07 05:35:25;;;;;;;4.40;2.70;;;;;;;23.90;100.00;99881.67;1680192;84;20967;-67
2021/06/07 05:37:52;;;;;;;6.30;3.43;;;;;;;24.34;100.00;99882.04;1673686;84;21077;-62
2021/06/07 05:40:20;;;;;;;4.60;3.27;;;;;;;24.90;100.00;99880.06;1686083;82;22528;-67
2021/06/07 05:42:48;;;;;;;4.33;3.30;;;;;;;25.64;100.00;99878.98;1685132;83;22151;-67
2021/06/07 05:45:16;;;;;;;6.30;3.40;;;;;;;26.30;100.00;99875.72;1697500;83;20977;-67
2021/06/07 05:47:42;;;;;;;4.40;3.40;;;;;;;27.06;100.00;99878.70;1687084;83;20973;-66
2021/06/07 05:50:18;;;;;;;5.55;3.55;;;;;;;27.78;100.00;99873.28;1719761;80;20841;-63
2021/06/07 05:52:47;;;;;;;5.92;3.30;;;;;;;28.17;100.00;99872.27;1699452;82;21108;-68
2021/06/07 05:55:20;;;;;;;10.13;3.35;;;;;;;28.08;100.00;99872.25;1707195;80;21085;-72
2021/06/07 05:57:48;;;;;;;7.12;3.52;;;;;;;27.74;100.00;99860.79;1692216;82;20979;-69
2021/06/07 06:00:17;;;;;;;4.53;3.45;;;;;;;27.58;100.00;99867.08;1704248;81;21081;-63
2021/06/07 06:02:43;;;;;;;6.65;3.30;;;;;;;27.72;100.00;99862.97;1697771;82;20986;-68
2021/06/07 06:05:12;;;;;;;4.75;3.45;;;;;;;27.83;100.00;99864.32;1712767;82;21134;-66
2021/06/07 06:07:38;;;;;;;4.90;3.47;;;;;;;28.04;100.00;99860.02;1712093;82;20919;-67
2021/06/07 06:10:06;;;;;;;4.53;3.17;;;;;;;28.26;100.00;99860.50;1703877;82;22285;-63
2021/06/07 06:12:34;;;;;;;4.90;3.25;;;;;;;28.46;100.00;99860.50;1714905;81;21074;-69
2021/06/07 06:15:04;;;;;;;5.87;3.72;;;;;;;28.72;100.00;99865.91;1718450;82;20998;-68
2021/06/07 06:17:30;;;;;;;5.92;3.40;;;;;;;28.68;100.00;99862.28;1715798;82;21084;-67
2021/06/07 06:19:57;;;;;;;6.40;3.17;;;;;;;28.72;100.00;99855.73;1721658;82;20975;-69
2021/06/07 06:22:23;;;;;;;8.38;3.80;;;;;;;28.73;100.00;99854.08;1719244;81;20990;-68
2021/06/07 06:24:50;;;;;;;5.53;3.85;;;;;;;28.63;100.00;99856.27;1718049;82;20931;-67
2021/06/07 06:27:17;;;;;;;5.75;4.15;;;;;;;28.77;100.00;99860.39;1711323;82;20927;-65
2021/06/07 06:29:44;;;;;;;5.05;2.75;;;;;;;28.89;100.00;99856.30;1714165;82;21085;-71
2021/06/07 06:32:11;;;;;;;7.05;2.92;;;;;;;28.73;100.00;99857.31;1714174;82;21050;-64
2021/06/07 06:34:39;;;;;;;4.72;2.75;;;;;;;28.42;100.00;99858.20;1719360;81;20899;-70
2021/06/07 06:37:05;;;;;;;5.17;2.90;;;;;;;28.14;100.00;99861.62;1717680;82;20977;-70
2021/06/07 06:39:32;;;;;;;6.03;2.90;;;;;;;28.01;100.00;99859.84;1720069;82;20950;-64
2021/06/07 06:41:59;;;;;;;5.97;2.45;;;;;;;28.05;100.00;99858.91;1712316;82;21110;-63
2021/06/07 06:44:26;;;;;;;3.70;2.02;;;;;;;28.24;100.00;99858.66;1717382;81;21006;-68
2021/06/07 06:46:53;;;;;;;4.22;2.05;;;;;;;28.31;100.00;99856.33;1720110;80;20990;-68
2021/06/07 06:49:20;;;;;;;2.22;1.92;;;;;;;28.42;100.00;99864.13;1713382;81;21473;-70
2021/06/07 06:51:47;;;;;;;5.53;3.00;;;;;;;28.38;100.00;99855.13;1716839;82;21560;-70
2021/06/07 06:54:13;;;;;;;3.95;2.42;;;;;;;28.28;100.00;99856.94;1717324;82;21130;-67
2021/06/07 06:56:40;;;;;;;4.72;2.60;;;;;;;28.18;100.00;99858.55;1719288;82;21021;-68
2021/06/07 06:59:07;;;;;;;3.52;2.10;;;;;;;27.85;100.00;99854.89;1717548;82;21031;-68
2021/06/07 07:01:33;;;;;;;2.83;2.12;;;;;;;27.65;100.00;99858.05;1719632;82;21018;-63
2021/06/07 07:04:00;;;;;;;3.37;2.45;;;;;;;27.64;100.00;99852.45;1732923;81;21746;-68
2021/06/07 07:06:26;;;;;;;3.72;2.47;;;;;;;27.67;100.00;99855.08;1726743;81;21120;-71
2021/06/07 07:08:54;;;;;;;3.72;2.47;;;;;;;27.60;100.00;99852.83;1728701;81;21525;-73
2021/06/07 07:11:21;;;;;;;4.92;2.40;;;;;;;27.59;100.00;99856.05;1742301;80;21602;-70
2021/06/07 07:13:49;;;;;;;3.65;2.37;;;;;;;27.74;100.00;99852.75;1729172;80;21007;-70
2021/06/07 07:16:15;;;;;;;3.67;2.33;;;;;;;27.99;100.00;99853.44;1738078;80;21034;-65
2021/06/07 07:18:43;;;;;;;6.17;2.70;;;;;;;28.30;100.00;99857.44;1729416;81;21129;-70
2021/06/07 07:21:10;;;;;;;4.60;2.83;;;;;;;28.48;100.00;99858.28;1735729;81;21037;-71
2021/06/07 07:23:36;;;;;;;4.78;3.02;;;;;;;27.69;100.00;99860.90;1729157;81;20931;-70
2021/06/07 07:26:03;;;;;;;3.75;2.60;;;;;;;27.69;100.00;99860.90;1722721;81;21468;-63
2021/06/07 07:28:30;;;;;;;3.30;2.90;;;;;;;27.20;100.00;99860.77;1727482;81;21070;-70
2021/06/07 07:30:57;;;;;;;7.17;2.50;;;;;;;26.76;100.00;99870.80;1727702;80;21084;-73
2021/06/07 07:33:23;;;;;;;11.03;3.70;;;;;;;26.24;100.00;99873.67;1733818;81;20986;-73
2021/06/07 07:35:50;;;;;;;10.80;3.33;;;;;;;24.80;100.00;99882.85;1727826;81;21019;-73
2021/06/07 07:38:17;;;;;;;11.20;3.27;;;;;;;23.50;100.00;99875.59;1735751;81;21593;-70
2021/06/07 07:40:46;;;;;;;6.00;3.20;;;;;;;22.75;100.00;99886.37;1728366;81;21493;-76
2021/06/07 07:43:12;;;;;;;8.37;3.37;;;;;;;22.17;100.00;99880.19;1733180;81;21073;-77
2021/06/07 07:45:39;;;;;;;7.93;3.27;;;;;;;21.83;100.00;99881.27;1740045;80;20864;-77
2021/06/07 07:48:08;;;;;;;7.37;4.07;;;;;;;21.70;100.00;99883.11;1729348;80;20919;-69
2021/06/07 07:50:34;;;;;;;6.10;2.70;;;;;;;21.60;100.00;99882.60;1739836;81;21002;-77
2021/06/07 07:53:02;;;;;;;5.13;2.60;;;;;;;21.73;100.00;99878.61;1726820;81;20990;-73
2021/06/07 07:55:31;;;;;;;7.10;3.03;;;;;;;21.87;100.00;99882.33;1739692;81;21140;-73
2021/06/07 07:58:01;;;;;;;5.80;2.80;;;;;;;21.82;100.00;99877.83;1714613;81;20953;-65
2021/06/07 08:00:29;;;;;;;4.50;3.20;;;;;;;21.79;100.00;99881.54;1729904;81;21041;-72
2021/06/07 08:02:58;;;;;;;5.07;3.07;;;;;;;21.89;100.00;99881.52;1698409;82;21016;-74
2021/06/07 08:05:25;;;;;;;6.17;3.73;;;;;;;21.97;100.00;99880.17;1697092;83;21022;-72
2021/06/07 08:07:54;;;;;;;6.73;3.60;;;;;;;22.00;100.00;99883.09;1692882;83;21519;-66
2021/06/07 08:10:20;;;;;;;5.20;3.20;;;;;;;22.08;100.00;99879.89;1692691;82;21529;-71
2021/06/07 08:12:48;;;;;;;5.60;3.30;;;;;;;22.14;100.00;99886.56;1697319;83;21115;-72
2021/06/07 08:15:16;;;;;;;9.97;4.70;;;;;;;22.29;100.00;99882.02;1693464;83;21482;-72
2021/06/07 08:17:43;;;;;;;10.80;3.67;;;;;;;22.38;100.00;99883.58;1694062;83;21176;-71
2021/06/07 08:20:14;;;;;;;6.63;3.60;;;;;;;22.42;100.00;99880.64;1702929;82;21157;-64
2021/06/07 08:22:42;;;;;;;4.58;3.33;;;;;;;22.81;100.00;99886.63;1695910;82;21071;-73
2021/06/07 08:25:12;;;;;;;5.37;3.10;;;;;;;23.06;100.00;99892.36;1698058;83;21031;-70
2021/06/07 08:27:38;;;;;;;5.00;3.47;;;;;;;23.32;100.00;99886.36;1696351;83;20975;-72
2021/06/07 08:30:07;;;;;;;7.67;3.70;;;;;;;23.72;100.00;99884.51;1700511;83;20976;-70
2021/06/07 08:32:35;;;;;;;5.37;3.50;;;;;;;24.00;100.00;99881.04;1691790;82;21208;-65
2021/06/07 08:35:04;;;;;;;4.30;3.33;;;;;;;24.49;100.00;99874.69;1696181;83;22365;-69
2021/06/07 08:37:31;;;;;;;6.17;2.93;;;;;;;25.11;100.00;99864.58;1689264;83;21059;-69
2021/06/07 08:39:57;;;;;;;4.30;2.90;;;;;;;25.90;100.00;99868.69;1691968;81;20981;-68
2021/06/07 08:42:24;;;;;;;5.45;2.95;;;;;;;26.52;100.00;99862.48;1695497;82;20934;-63
2021/06/07 08:44:52;;;;;;;5.55;2.98;;;;;;;26.88;100.00;99854.47;1690815;83;21236;-68
2021/06/07 08:47:20;;;;;;;4.62;3.10;;;;;;;26.93;100.00;99858.91;1690677;83;20935;-70
2021/06/07 08:49:46;;;;;;;4.03;2.85;;;;;;;27.15;100.00;99847.48;1691866;83;20933;-69
2021/06/07 08:52:14;;;;;;;6.08;2.83;;;;;;;27.50;100.00;99842.36;1695813;83;21553;-64
2021/06/07 08:54:42;;;;;;;4.50;3.20;;;;;;;27.79;100.00;99840.59;1690590;83;20961;-68
2021/06/07 08:57:08;;;;;;;6.12;3.17;;;;;;;27.95;100.00;99839.63;1700124;83;21877;-68
2021/06/07 08:59:35;;;;;;;4.75;3.00;;;;;;;28.18;100.00;99837.11;1696017;83;21059;-68
2021/06/07 09:02:04;;;;;;;5.85;3.15;;;;;;;28.41;100.00;99839.17;1698337;83;20998;-66
2021/06/07 09:04:30;;;;;;;5.35;3.00;;;;;;;28.73;100.00;99832.61;1694727;83;20905;-62
2021/06/07 09:06:56;;;;;;;4.28;3.30;;;;;;;28.71;100.00;99824.63;1697319;82;20941;-67
2021/06/07 09:09:24;;;;;;;4.37;3.08;;;;;;;28.76;100.00;99826.63;1696155;83;21096;-69
2021/06/07 09:12:00;;;;;;;4.05;3.20;;;;;;;28.61;100.00;99827.09;1699402;82;21487;-67
2021/06/07 09:14:31;;;;;;;3.58;2.65;;;;;;;28.22;100.00;99825.22;1688852;83;20964;-63
2021/06/07 09:16:57;;;;;;;3.72;2.37;;;;;;;27.84;100.00;99822.52;1695545;83;20964;-68
2021/06/07 09:19:29;;;;;;;4.65;2.58;;;;;;;27.58;100.00;99817.55;1694289;83;21021;-69
2021/06/07 09:22:25;;;;;;;4.35;2.67;;;;;;;27.56;100.00;99811.70;1697548;83;21140;-66
2021/06/07 09:25:12;;;;;;;5.35;3.05;;;;;;;27.73;100.00;99810.98;1693379;83;21062;-67
2021/06/07 09:27:42;;;;;;;3.77;2.25;;;;;;;28.29;100.00;99801.44;1697048;82;21060;-63
2021/06/07 09:30:30;;;;;;;5.85;2.80;;;;;;;28.82;100.00;99799.08;1698436;83;21852;-67
2021/06/07 09:33:25;;;;;;;3.60;2.80;;;;;;;29.12;100.00;99790.64;1699147;83;20968;-63
2021/06/07 09:36:28;;;;;;;6.15;3.05;;;;;;;28.98;99.21;99785.47;1691943;83;21181;-67
2021/06/07 09:39:17;;;;;;;3.55;2.47;;;;;;;29.17;100.00;99787.81;1697533;82;21094;-67
2021/06/07 09:41:52;;;;;;;4.25;2.77;;;;;;;29.39;100.00;99787.35;1694450;83;21045;-68
2021/06/07 09:44:35;;;;;;;4.00;2.90;;;;;;;29.60;100.00;99781.56;1696749;83;20975;-67
2021/06/07 09:47:19;;;;;;;4.37;3.05;;;;;;;29.78;100.00;99784.41;1692677;83;20957;-68
2021/06/07 09:50:03;;;;;;;4.65;2.70;;;;;;;30.21;98.19;99778.05;1696266;82;21110;-68
2021/06/07 09:52:55;;;;;;;5.45;2.80;;;;;;;30.49;94.40;99772.16;1696446;82;20908;-69
2021/06/07 09:55:23;;;;;;;4.78;2.92;;;;;;;30.98;89.43;99723.39;1699472;83;21055;-67
2021/06/07 09:58:01;;;;;;;4.28;2.92;;;;;;;31.25;81.81;99765.09;1691608;83;21071;-67
2021/06/07 10:00:52;;;;;;;4.65;2.10;;;;;;;31.04;81.93;99764.36;1700481;83;21491;-69
2021/06/07 10:03:24;;;;;;;3.47;2.60;;;;;;;31.02;83.26;99762.55;1689150;81;21335;-69
2021/06/07 10:06:35;;;;;;;4.65;2.33;;;;;;;31.05;84.08;99761.11;1686412;83;21203;-69
2021/06/07 10:09:12;;;;;;;5.58;2.87;;;;;;;31.09;82.50;99762.02;1690186;82;21513;-68
2021/06/07 10:11:41;;;;;;;7.90;2.65;;;;;;;31.20;77.84;99763.95;1694190;82;21046;-64
2021/06/07 10:14:19;;;;;;;4.08;2.90;;;;;;;30.99;83.13;99761.33;1684048;83;21436;-69
2021/06/07 10:17:02;;;;;;;4.33;2.70;;;;;;;30.94;84.14;99760.16;1692039;83;21188;-69
2021/06/07 10:22:08;;;;;;;4.25;2.85;;;;;;;31.03;80.72;99752.03;1651972;83;20949;-68
2021/06/07 10:24:34;;;;;;;8.68;2.37;;;;;;;30.86;71.18;99765.64;1673683;83;21465;-69
2021/06/07 10:27:03;;;;;;;5.55;2.83;;;;;;;30.43;70.80;99761.38;1687797;83;21052;-68
2021/06/07 10:29:34;;;;;;;3.92;2.60;;;;;;;29.89;74.58;99763.88;1693251;82;21722;-64
2021/06/07 10:32:09;;;;;;;3.65;2.70;;;;;;;29.26;83.45;99764.41;1676327;83;21143;-69
2021/06/07 10:34:50;;;;;;;5.95;2.60;;;;;;;28.56;91.71;99774.41;1690402;83;21037;-70
2021/06/07 10:37:17;;;;;;;4.67;2.58;;;;;;;27.96;98.07;99779.06;1684254;83;20990;-67
2021/06/07 10:39:44;;;;;;;4.10;2.67;;;;;;;27.37;100.00;99777.11;1689345;83;21159;-70
2021/06/07 10:42:17;;;;;;;5.08;2.83;;;;;;;26.95;100.00;99770.36;1684286;83;21165;-69
2021/06/07 10:44:53;;;;;;;4.83;2.65;;;;;;;26.62;100.00;99771.34;1689888;83;20969;-68
2021/06/07 10:47:26;;;;;;;4.17;2.70;;;;;;;26.52;100.00;99761.42;1689508;83;22561;-70
2021/06/07 10:50:09;;;;;;;4.47;3.12;;;;;;;26.53;100.00;99767.03;1688682;82;21096;-68
2021/06/07 10:52:54;;;;;;;5.03;3.08;;;;;;;26.52;100.00;99762.23;1685303;83;20930;-62
2021/06/07 10:55:27;;;;;;;3.47;2.70;;;;;;;26.38;100.00;99764.11;1691612;83;21144;-69
2021/06/07 10:58:00;;;;;;;6.45;2.90;;;;;;;26.52;100.00;99764.09;1674918;83;20901;-67
2021/06/07 11:00:47;;;;;;;4.28;2.80;;;;;;;26.60;100.00;99763.41;1689634;82;21088;-65
2021/06/07 11:03:22;;;;;;;4.22;2.90;;;;;;;26.68;100.00;99764.02;1683059;83;20993;-67
2021/06/07 11:05:53;;;;;;;5.67;2.70;;;;;;;26.83;100.00;99754.86;1686213;83;20867;-63
2021/06/07 11:08:29;;;;;;;4.03;2.58;;;;;;;27.05;100.00;99756.20;1690084;82;21241;-66
2021/06/07 11:11:09;;;;;;;4.28;2.87;;;;;;;27.01;100.00;99745.87;1691889;83;21084;-67
2021/06/07 11:13:49;;;;;;;3.67;2.60;;;;;;;26.99;100.00;99751.27;1678936;82;21589;-64
2021/06/07 11:16:38;;;;;;;4.10;2.72;;;;;;;26.96;100.00;99747.86;1688892;83;21131;-67
2021/06/07 11:19:13;;;;;;;5.00;2.52;;;;;;;26.96;100.00;99747.86;1674755;83;20986;-64
2021/06/07 11:21:53;;;;;;;4.92;2.60;;;;;;;27.01;100.00;99744.53;1681860;83;22423;-69
2021/06/07 11:24:35;;;;;;;2.85;2.08;;;;;;;27.17;100.00;99740.95;1673225;83;20944;-68
2021/06/07 11:27:04;;;;;;;2.60;1.85;;;;;;;27.18;100.00;99739.85;1676249;83;21015;-66
2021/06/07 11:29:32;;;;;;;3.35;2.35;;;;;;;27.23;100.00;99742.39;1675308;83;20993;-65
2021/06/07 11:32:09;;;;;;;3.37;2.40;;;;;;;27.38;100.00;99739.32;1675611;83;21000;-68
2021/06/07 11:34:43;;;;;;;4.03;2.47;;;;;;;27.53;100.00;99740.02;1680121;83;21122;-67
2021/06/07 11:37:14;;;;;;;3.02;2.17;;;;;;;27.70;100.00;99729.39;1680477;83;21044;-66
2021/06/07 11:39:48;;;;;;;3.50;2.27;;;;;;;27.71;100.00;99728.29;1679699;83;20973;-69
2021/06/07 11:42:17;;;;;;;4.20;2.55;;;;;;;27.73;100.00;99730.12;1679947;83;21003;-69